sensor_id;sensor_type;location;lat;lon;timestamp;P1;durP1;ratioP1;P2;durP2;ratioP2
11646;SDS011;5880;52.342;9.662;2023-04-06T00:01:48;6.53;;;5.83;;
11646;SDS011;5880;52.342;9.662;2023-04-06T00:04:13;7.20;;;6.20;;
11646;SDS011;5880;52.342;9.662;2023-04-06T00:06:39;7.67;;;6.17;;
11646;SDS011;5880;52.342;9.662;2023-04-06T00:09:05;9.03;;;5.97;;
11646;SDS011;5880;52.342;9.662;2023-04-06T00:11:30;7.57;;;6.30;;
11646;SDS011;5880;52.342;9.662;2023-04-06T00:13:56;8.23;;;6.13;;
11646;SDS011;5880;52.342;9.662;2023-04-06T00:16:22;8.50;;;6.63;;
11646;SDS011;5880;52.342;9.662;2023-04-06T00:18:47;7.17;;;6.03;;
11646;SDS011;5880;52.342;9.662;2023-04-06T00:21:13;8.63;;;6.33;;
11646;SDS011;5880;52.342;9.662;2023-04-06T00:23:40;7.63;;;6.43;;
11646;SDS011;5880;52.342;9.662;2023-04-06T00:26:07;6.63;;;6.00;;
11646;SDS011;5880;52.342;9.662;2023-04-06T00:28:33;8.23;;;6.07;;
11646;SDS011;5880;52.342;9.662;2023-04-06T00:30:59;6.47;;;5.77;;
11646;SDS011;5880;52.342;9.662;2023-04-06T00:33:25;7.33;;;6.10;;
11646;SDS011;5880;52.342;9.662;2023-04-06T00:35:50;7.77;;;5.80;;
11646;SDS011;5880;52.342;9.662;2023-04-06T00:38:16;8.70;;;6.17;;
11646;SDS011;5880;52.342;9.662;2023-04-06T00:40:42;7.20;;;5.90;;
11646;SDS011;5880;52.342;9.662;2023-04-06T00:43:12;6.97;;;6.20;;
11646;SDS011;5880;52.342;9.662;2023-04-06T00:45:39;8.17;;;6.40;;
11646;SDS011;5880;52.342;9.662;2023-04-06T00:48:06;7.10;;;6.27;;
11646;SDS011;5880;52.342;9.662;2023-04-06T00:50:32;7.00;;;6.30;;
11646;SDS011;5880;52.342;9.662;2023-04-06T00:52:58;6.97;;;6.27;;
11646;SDS011;5880;52.342;9.662;2023-04-06T00:55:26;9.80;;;6.23;;
11646;SDS011;5880;52.342;9.662;2023-04-06T00:57:52;9.07;;;6.63;;
11646;SDS011;5880;52.342;9.662;2023-04-06T01:00:19;6.27;;;5.67;;
11646;SDS011;5880;52.342;9.662;2023-04-06T01:02:45;6.63;;;5.90;;
11646;SDS011;5880;52.342;9.662;2023-04-06T01:05:12;7.43;;;5.83;;
11646;SDS011;5880;52.342;9.662;2023-04-06T01:07:38;6.90;;;6.13;;
11646;SDS011;5880;52.342;9.662;2023-04-06T01:10:04;7.43;;;6.03;;
11646;SDS011;5880;52.342;9.662;2023-04-06T01:12:30;6.63;;;5.90;;
11646;SDS011;5880;52.342;9.662;2023-04-06T01:14:56;7.00;;;5.73;;
11646;SDS011;5880;52.342;9.662;2023-04-06T01:17:21;6.23;;;5.63;;
11646;SDS011;5880;52.342;9.662;2023-04-06T01:19:47;7.57;;;5.87;;
11646;SDS011;5880;52.342;9.662;2023-04-06T01:22:16;7.20;;;5.80;;
11646;SDS011;5880;52.342;9.662;2023-04-06T01:24:42;5.90;;;5.30;;
11646;SDS011;5880;52.342;9.662;2023-04-06T01:27:08;6.57;;;5.87;;
11646;SDS011;5880;52.342;9.662;2023-04-06T01:29:34;8.37;;;6.20;;
11646;SDS011;5880;52.342;9.662;2023-04-06T01:32:00;6.17;;;5.57;;
11646;SDS011;5880;52.342;9.662;2023-04-06T01:34:26;6.27;;;5.60;;
11646;SDS011;5880;52.342;9.662;2023-04-06T01:36:52;6.70;;;5.80;;
11646;SDS011;5880;52.342;9.662;2023-04-06T01:39:17;6.27;;;5.30;;
11646;SDS011;5880;52.342;9.662;2023-04-06T01:41:44;6.40;;;4.90;;
11646;SDS011;5880;52.342;9.662;2023-04-06T01:44:12;5.57;;;4.60;;
11646;SDS011;5880;52.342;9.662;2023-04-06T01:46:39;5.83;;;4.80;;
11646;SDS011;5880;52.342;9.662;2023-04-06T01:49:05;6.40;;;4.80;;
11646;SDS011;5880;52.342;9.662;2023-04-06T01:51:31;6.17;;;4.80;;
11646;SDS011;5880;52.342;9.662;2023-04-06T01:53:56;5.97;;;5.10;;
11646;SDS011;5880;52.342;9.662;2023-04-06T01:56:22;5.30;;;4.17;;
11646;SDS011;5880;52.342;9.662;2023-04-06T01:58:48;4.67;;;4.13;;
11646;SDS011;5880;52.342;9.662;2023-04-06T02:01:13;5.17;;;4.27;;
11646;SDS011;5880;52.342;9.662;2023-04-06T02:03:39;5.10;;;4.17;;
11646;SDS011;5880;52.342;9.662;2023-04-06T02:06:05;4.73;;;4.23;;
11646;SDS011;5880;52.342;9.662;2023-04-06T02:08:31;5.23;;;4.53;;
11646;SDS011;5880;52.342;9.662;2023-04-06T02:10:56;5.87;;;4.63;;
11646;SDS011;5880;52.342;9.662;2023-04-06T02:13:22;6.57;;;4.23;;
11646;SDS011;5880;52.342;9.662;2023-04-06T02:15:48;5.47;;;4.50;;
11646;SDS011;5880;52.342;9.662;2023-04-06T02:18:13;5.23;;;4.33;;
11646;SDS011;5880;52.342;9.662;2023-04-06T02:20:39;4.40;;;3.83;;
11646;SDS011;5880;52.342;9.662;2023-04-06T02:23:05;5.57;;;4.17;;
11646;SDS011;5880;52.342;9.662;2023-04-06T02:25:31;5.23;;;4.10;;
11646;SDS011;5880;52.342;9.662;2023-04-06T02:27:56;5.07;;;4.07;;
11646;SDS011;5880;52.342;9.662;2023-04-06T02:30:22;5.77;;;3.77;;
11646;SDS011;5880;52.342;9.662;2023-04-06T02:32:47;4.27;;;3.40;;
11646;SDS011;5880;52.342;9.662;2023-04-06T02:35:13;4.10;;;3.70;;
11646;SDS011;5880;52.342;9.662;2023-04-06T02:37:39;5.27;;;3.70;;
11646;SDS011;5880;52.342;9.662;2023-04-06T02:40:05;3.50;;;3.20;;
11646;SDS011;5880;52.342;9.662;2023-04-06T02:42:31;4.30;;;3.83;;
11646;SDS011;5880;52.342;9.662;2023-04-06T02:44:57;4.50;;;3.43;;
11646;SDS011;5880;52.342;9.662;2023-04-06T02:47:23;3.90;;;3.47;;
11646;SDS011;5880;52.342;9.662;2023-04-06T02:49:49;4.57;;;3.80;;
11646;SDS011;5880;52.342;9.662;2023-04-06T02:52:14;3.93;;;3.30;;
11646;SDS011;5880;52.342;9.662;2023-04-06T02:54:40;3.80;;;3.40;;
11646;SDS011;5880;52.342;9.662;2023-04-06T02:57:06;4.77;;;3.80;;
11646;SDS011;5880;52.342;9.662;2023-04-06T02:59:32;5.17;;;3.73;;
11646;SDS011;5880;52.342;9.662;2023-04-06T03:01:58;4.30;;;3.43;;
11646;SDS011;5880;52.342;9.662;2023-04-06T03:04:24;4.03;;;3.40;;
11646;SDS011;5880;52.342;9.662;2023-04-06T03:06:50;6.50;;;3.37;;
11646;SDS011;5880;52.342;9.662;2023-04-06T03:09:16;6.47;;;3.90;;
11646;SDS011;5880;52.342;9.662;2023-04-06T03:11:42;4.00;;;3.60;;
11646;SDS011;5880;52.342;9.662;2023-04-06T03:14:08;3.80;;;3.30;;
11646;SDS011;5880;52.342;9.662;2023-04-06T03:16:33;4.73;;;3.43;;
11646;SDS011;5880;52.342;9.662;2023-04-06T03:18:59;3.70;;;3.23;;
11646;SDS011;5880;52.342;9.662;2023-04-06T03:21:25;5.93;;;3.87;;
11646;SDS011;5880;52.342;9.662;2023-04-06T03:23:50;3.67;;;3.37;;
11646;SDS011;5880;52.342;9.662;2023-04-06T03:26:16;4.10;;;3.47;;
11646;SDS011;5880;52.342;9.662;2023-04-06T03:28:42;4.60;;;3.77;;
11646;SDS011;5880;52.342;9.662;2023-04-06T03:31:08;5.83;;;3.53;;
11646;SDS011;5880;52.342;9.662;2023-04-06T03:33:33;6.27;;;3.17;;
11646;SDS011;5880;52.342;9.662;2023-04-06T03:35:59;4.07;;;3.37;;
11646;SDS011;5880;52.342;9.662;2023-04-06T03:38:25;3.50;;;3.20;;
11646;SDS011;5880;52.342;9.662;2023-04-06T03:40:50;3.93;;;3.30;;
11646;SDS011;5880;52.342;9.662;2023-04-06T03:43:16;3.87;;;3.50;;
11646;SDS011;5880;52.342;9.662;2023-04-06T03:45:42;5.43;;;3.17;;
11646;SDS011;5880;52.342;9.662;2023-04-06T03:48:07;3.70;;;3.30;;
11646;SDS011;5880;52.342;9.662;2023-04-06T03:50:33;3.60;;;3.20;;
11646;SDS011;5880;52.342;9.662;2023-04-06T03:52:59;4.00;;;3.20;;
11646;SDS011;5880;52.342;9.662;2023-04-06T03:55:27;4.33;;;3.60;;
11646;SDS011;5880;52.342;9.662;2023-04-06T03:57:53;4.07;;;3.40;;
11646;SDS011;5880;52.342;9.662;2023-04-06T04:00:19;3.53;;;3.13;;
11646;SDS011;5880;52.342;9.662;2023-04-06T04:02:45;7.27;;;3.80;;
11646;SDS011;5880;52.342;9.662;2023-04-06T04:05:10;3.83;;;3.43;;
11646;SDS011;5880;52.342;9.662;2023-04-06T04:07:36;4.17;;;3.60;;
11646;SDS011;5880;52.342;9.662;2023-04-06T04:10:02;4.87;;;3.60;;
11646;SDS011;5880;52.342;9.662;2023-04-06T04:12:28;5.67;;;3.53;;
11646;SDS011;5880;52.342;9.662;2023-04-06T04:14:54;4.10;;;3.70;;
11646;SDS011;5880;52.342;9.662;2023-04-06T04:17:19;7.37;;;3.90;;
11646;SDS011;5880;52.342;9.662;2023-04-06T04:19:46;5.83;;;3.83;;
11646;SDS011;5880;52.342;9.662;2023-04-06T04:22:12;5.23;;;4.00;;
11646;SDS011;5880;52.342;9.662;2023-04-06T04:24:37;4.50;;;3.70;;
11646;SDS011;5880;52.342;9.662;2023-04-06T04:27:03;4.47;;;3.73;;
11646;SDS011;5880;52.342;9.662;2023-04-06T04:29:30;5.00;;;4.10;;
11646;SDS011;5880;52.342;9.662;2023-04-06T04:31:55;5.47;;;3.83;;
11646;SDS011;5880;52.342;9.662;2023-04-06T04:34:21;5.80;;;4.07;;
11646;SDS011;5880;52.342;9.662;2023-04-06T04:36:49;4.00;;;3.53;;
11646;SDS011;5880;52.342;9.662;2023-04-06T04:39:16;6.70;;;3.60;;
11646;SDS011;5880;52.342;9.662;2023-04-06T04:41:42;5.27;;;4.00;;
11646;SDS011;5880;52.342;9.662;2023-04-06T04:44:08;4.10;;;3.60;;
11646;SDS011;5880;52.342;9.662;2023-04-06T04:46:34;4.40;;;3.90;;
11646;SDS011;5880;52.342;9.662;2023-04-06T04:49:00;4.40;;;3.73;;
11646;SDS011;5880;52.342;9.662;2023-04-06T04:51:25;6.37;;;4.30;;
11646;SDS011;5880;52.342;9.662;2023-04-06T04:53:51;6.87;;;4.30;;
11646;SDS011;5880;52.342;9.662;2023-04-06T04:56:16;5.10;;;4.13;;
11646;SDS011;5880;52.342;9.662;2023-04-06T04:58:42;5.13;;;4.30;;
11646;SDS011;5880;52.342;9.662;2023-04-06T05:01:08;5.77;;;4.23;;
11646;SDS011;5880;52.342;9.662;2023-04-06T05:03:33;6.27;;;4.30;;
11646;SDS011;5880;52.342;9.662;2023-04-06T05:06:00;5.73;;;4.30;;
11646;SDS011;5880;52.342;9.662;2023-04-06T05:08:26;5.50;;;4.50;;
11646;SDS011;5880;52.342;9.662;2023-04-06T05:10:52;6.63;;;4.77;;
11646;SDS011;5880;52.342;9.662;2023-04-06T05:13:18;6.17;;;4.97;;
11646;SDS011;5880;52.342;9.662;2023-04-06T05:15:43;5.27;;;4.30;;
11646;SDS011;5880;52.342;9.662;2023-04-06T05:18:09;7.13;;;5.10;;
11646;SDS011;5880;52.342;9.662;2023-04-06T05:20:35;5.33;;;4.70;;
11646;SDS011;5880;52.342;9.662;2023-04-06T05:23:02;6.73;;;4.70;;
11646;SDS011;5880;52.342;9.662;2023-04-06T05:25:28;7.33;;;5.00;;
11646;SDS011;5880;52.342;9.662;2023-04-06T05:27:54;5.60;;;5.10;;
11646;SDS011;5880;52.342;9.662;2023-04-06T05:30:20;6.20;;;5.57;;
11646;SDS011;5880;52.342;9.662;2023-04-06T05:32:46;6.07;;;4.90;;
11646;SDS011;5880;52.342;9.662;2023-04-06T05:35:11;7.07;;;5.20;;
11646;SDS011;5880;52.342;9.662;2023-04-06T05:37:38;7.07;;;4.80;;
11646;SDS011;5880;52.342;9.662;2023-04-06T05:40:04;4.80;;;4.30;;
11646;SDS011;5880;52.342;9.662;2023-04-06T05:42:37;5.37;;;4.83;;
11646;SDS011;5880;52.342;9.662;2023-04-06T05:45:07;4.77;;;4.27;;
11646;SDS011;5880;52.342;9.662;2023-04-06T05:47:35;5.97;;;5.00;;
11646;SDS011;5880;52.342;9.662;2023-04-06T05:50:02;5.87;;;5.27;;
11646;SDS011;5880;52.342;9.662;2023-04-06T05:52:28;5.23;;;4.73;;
11646;SDS011;5880;52.342;9.662;2023-04-06T05:54:54;5.27;;;4.77;;
11646;SDS011;5880;52.342;9.662;2023-04-06T05:57:19;8.33;;;5.00;;
11646;SDS011;5880;52.342;9.662;2023-04-06T05:59:45;6.23;;;4.57;;
11646;SDS011;5880;52.342;9.662;2023-04-06T06:02:11;7.27;;;4.70;;
11646;SDS011;5880;52.342;9.662;2023-04-06T06:04:36;5.60;;;5.00;;
11646;SDS011;5880;52.342;9.662;2023-04-06T06:07:02;5.07;;;4.57;;
11646;SDS011;5880;52.342;9.662;2023-04-06T06:09:28;4.77;;;4.20;;
11646;SDS011;5880;52.342;9.662;2023-04-06T06:11:54;4.53;;;4.13;;
11646;SDS011;5880;52.342;9.662;2023-04-06T06:14:20;5.13;;;4.63;;
11646;SDS011;5880;52.342;9.662;2023-04-06T06:16:46;5.27;;;4.37;;
11646;SDS011;5880;52.342;9.662;2023-04-06T06:19:12;6.57;;;4.47;;
11646;SDS011;5880;52.342;9.662;2023-04-06T06:21:38;5.23;;;4.60;;
11646;SDS011;5880;52.342;9.662;2023-04-06T06:24:04;4.77;;;4.03;;
11646;SDS011;5880;52.342;9.662;2023-04-06T06:26:30;5.00;;;4.00;;
11646;SDS011;5880;52.342;9.662;2023-04-06T06:28:56;5.20;;;4.70;;
11646;SDS011;5880;52.342;9.662;2023-04-06T06:31:22;4.70;;;4.10;;
11646;SDS011;5880;52.342;9.662;2023-04-06T06:33:48;4.60;;;4.20;;
11646;SDS011;5880;52.342;9.662;2023-04-06T06:36:17;4.70;;;4.10;;
11646;SDS011;5880;52.342;9.662;2023-04-06T06:38:43;6.10;;;4.65;;
11646;SDS011;5880;52.342;9.662;2023-04-06T06:41:09;4.63;;;4.22;;
11646;SDS011;5880;52.342;9.662;2023-04-06T06:43:35;4.22;;;3.85;;
11646;SDS011;5880;52.342;9.662;2023-04-06T06:46:01;5.03;;;4.38;;
11646;SDS011;5880;52.342;9.662;2023-04-06T06:48:28;4.35;;;3.95;;
11646;SDS011;5880;52.342;9.662;2023-04-06T06:50:53;4.15;;;3.85;;
11646;SDS011;5880;52.342;9.662;2023-04-06T06:53:19;4.38;;;3.97;;
11646;SDS011;5880;52.342;9.662;2023-04-06T06:55:45;4.13;;;3.75;;
11646;SDS011;5880;52.342;9.662;2023-04-06T06:58:11;4.07;;;3.45;;
11646;SDS011;5880;52.342;9.662;2023-04-06T07:00:36;4.88;;;3.58;;
11646;SDS011;5880;52.342;9.662;2023-04-06T07:03:02;3.80;;;3.50;;
11646;SDS011;5880;52.342;9.662;2023-04-06T07:05:28;3.75;;;3.45;;
11646;SDS011;5880;52.342;9.662;2023-04-06T07:07:54;4.47;;;3.97;;
11646;SDS011;5880;52.342;9.662;2023-04-06T07:10:21;4.38;;;3.97;;
11646;SDS011;5880;52.342;9.662;2023-04-06T07:12:47;3.55;;;3.25;;
11646;SDS011;5880;52.342;9.662;2023-04-06T07:15:13;3.92;;;3.58;;
11646;SDS011;5880;52.342;9.662;2023-04-06T07:17:38;4.15;;;3.75;;
11646;SDS011;5880;52.342;9.662;2023-04-06T07:20:06;4.68;;;4.28;;
11646;SDS011;5880;52.342;9.662;2023-04-06T07:22:32;4.68;;;3.88;;
11646;SDS011;5880;52.342;9.662;2023-04-06T07:24:58;3.65;;;3.35;;
11646;SDS011;5880;52.342;9.662;2023-04-06T07:27:23;5.15;;;3.70;;
11646;SDS011;5880;52.342;9.662;2023-04-06T07:29:49;3.72;;;3.42;;
11646;SDS011;5880;52.342;9.662;2023-04-06T07:32:15;3.92;;;3.63;;
11646;SDS011;5880;52.342;9.662;2023-04-06T07:34:40;3.67;;;3.38;;
11646;SDS011;5880;52.342;9.662;2023-04-06T07:37:06;3.92;;;3.53;;
11646;SDS011;5880;52.342;9.662;2023-04-06T07:39:32;3.97;;;3.58;;
11646;SDS011;5880;52.342;9.662;2023-04-06T07:41:59;3.67;;;3.38;;
11646;SDS011;5880;52.342;9.662;2023-04-06T07:44:25;3.70;;;3.40;;
11646;SDS011;5880;52.342;9.662;2023-04-06T07:46:51;3.67;;;3.38;;
11646;SDS011;5880;52.342;9.662;2023-04-06T07:49:16;3.63;;;3.15;;
11646;SDS011;5880;52.342;9.662;2023-04-06T07:51:42;3.95;;;3.60;;
11646;SDS011;5880;52.342;9.662;2023-04-06T07:54:08;4.32;;;3.92;;
11646;SDS011;5880;52.342;9.662;2023-04-06T07:56:33;4.00;;;3.60;;
11646;SDS011;5880;52.342;9.662;2023-04-06T07:58:59;4.00;;;3.70;;
11646;SDS011;5880;52.342;9.662;2023-04-06T08:01:26;4.00;;;3.45;;
11646;SDS011;5880;52.342;9.662;2023-04-06T08:03:53;4.00;;;3.70;;
11646;SDS011;5880;52.342;9.662;2023-04-06T08:06:20;4.25;;;3.85;;
11646;SDS011;5880;52.342;9.662;2023-04-06T08:08:46;3.90;;;3.58;;
11646;SDS011;5880;52.342;9.662;2023-04-06T08:11:11;4.28;;;3.60;;
11646;SDS011;5880;52.342;9.662;2023-04-06T08:13:37;4.75;;;3.95;;
11646;SDS011;5880;52.342;9.662;2023-04-06T08:16:03;3.70;;;3.40;;
11646;SDS011;5880;52.342;9.662;2023-04-06T08:18:29;3.80;;;3.50;;
11646;SDS011;5880;52.342;9.662;2023-04-06T08:20:55;3.92;;;3.63;;
11646;SDS011;5880;52.342;9.662;2023-04-06T08:23:21;4.88;;;3.70;;
11646;SDS011;5880;52.342;9.662;2023-04-06T08:25:47;4.45;;;3.40;;
11646;SDS011;5880;52.342;9.662;2023-04-06T08:28:13;3.97;;;3.60;;
11646;SDS011;5880;52.342;9.662;2023-04-06T08:30:39;4.00;;;3.70;;
11646;SDS011;5880;52.342;9.662;2023-04-06T08:33:07;4.10;;;3.67;;
11646;SDS011;5880;52.342;9.662;2023-04-06T08:35:34;4.00;;;3.60;;
11646;SDS011;5880;52.342;9.662;2023-04-06T08:38:00;4.30;;;4.00;;
11646;SDS011;5880;52.342;9.662;2023-04-06T08:40:25;4.32;;;3.92;;
11646;SDS011;5880;52.342;9.662;2023-04-06T08:42:54;4.45;;;4.05;;
11646;SDS011;5880;52.342;9.662;2023-04-06T08:45:21;5.00;;;3.83;;
11646;SDS011;5880;52.342;9.662;2023-04-06T08:47:50;4.05;;;3.72;;
11646;SDS011;5880;52.342;9.662;2023-04-06T08:50:17;4.43;;;3.90;;
11646;SDS011;5880;52.342;9.662;2023-04-06T08:52:47;4.40;;;4.00;;
11646;SDS011;5880;52.342;9.662;2023-04-06T08:55:14;4.95;;;4.50;;
11646;SDS011;5880;52.342;9.662;2023-04-06T08:57:41;4.30;;;3.90;;
11646;SDS011;5880;52.342;9.662;2023-04-06T09:00:07;5.55;;;4.30;;
11646;SDS011;5880;52.342;9.662;2023-04-06T09:02:39;5.28;;;4.32;;
11646;SDS011;5880;52.342;9.662;2023-04-06T09:05:07;4.55;;;4.15;;
11646;SDS011;5880;52.342;9.662;2023-04-06T09:07:35;4.05;;;3.70;;
11646;SDS011;5880;52.342;9.662;2023-04-06T09:10:02;4.78;;;4.32;;
11646;SDS011;5880;52.342;9.662;2023-04-06T09:12:30;4.97;;;4.47;;
11646;SDS011;5880;52.342;9.662;2023-04-06T09:14:56;4.40;;;4.00;;
11646;SDS011;5880;52.342;9.662;2023-04-06T09:17:25;4.78;;;4.22;;
11646;SDS011;5880;52.342;9.662;2023-04-06T09:19:53;4.90;;;4.30;;
11646;SDS011;5880;52.342;9.662;2023-04-06T09:22:20;4.68;;;4.18;;
11646;SDS011;5880;52.342;9.662;2023-04-06T09:24:46;4.90;;;4.32;;
11646;SDS011;5880;52.342;9.662;2023-04-06T09:27:16;4.63;;;4.22;;
11646;SDS011;5880;52.342;9.662;2023-04-06T09:29:43;4.88;;;4.43;;
11646;SDS011;5880;52.342;9.662;2023-04-06T09:32:10;4.40;;;4.00;;
11646;SDS011;5880;52.342;9.662;2023-04-06T09:34:37;4.50;;;4.10;;
11646;SDS011;5880;52.342;9.662;2023-04-06T09:37:16;5.00;;;4.32;;
11646;SDS011;5880;52.342;9.662;2023-04-06T09:39:43;4.53;;;3.83;;
11646;SDS011;5880;52.342;9.662;2023-04-06T09:42:26;5.15;;;4.25;;
11646;SDS011;5880;52.342;9.662;2023-04-06T09:44:51;4.22;;;3.83;;
11646;SDS011;5880;52.342;9.662;2023-04-06T09:47:17;4.32;;;3.92;;
11646;SDS011;5880;52.342;9.662;2023-04-06T09:49:44;4.10;;;3.70;;
11646;SDS011;5880;52.342;9.662;2023-04-06T09:52:14;4.40;;;4.00;;
11646;SDS011;5880;52.342;9.662;2023-04-06T09:54:43;4.53;;;4.00;;
11646;SDS011;5880;52.342;9.662;2023-04-06T09:57:36;4.50;;;4.03;;
11646;SDS011;5880;52.342;9.662;2023-04-06T10:00:20;4.57;;;3.83;;
11646;SDS011;5880;52.342;9.662;2023-04-06T10:02:55;3.95;;;3.60;;
11646;SDS011;5880;52.342;9.662;2023-04-06T10:05:42;4.70;;;4.22;;
11646;SDS011;5880;52.342;9.662;2023-04-06T10:08:14;4.38;;;3.97;;
11646;SDS011;5880;52.342;9.662;2023-04-06T10:10:41;4.10;;;3.78;;
11646;SDS011;5880;52.342;9.662;2023-04-06T10:13:07;4.45;;;4.05;;
11646;SDS011;5880;52.342;9.662;2023-04-06T10:15:36;5.20;;;3.92;;
11646;SDS011;5880;52.342;9.662;2023-04-06T10:18:04;4.32;;;3.92;;
11646;SDS011;5880;52.342;9.662;2023-04-06T10:20:42;4.57;;;4.05;;
11646;SDS011;5880;52.342;9.662;2023-04-06T10:25:53;5.25;;;4.68;;
11646;SDS011;5880;52.342;9.662;2023-04-06T10:28:25;6.28;;;4.78;;
11646;SDS011;5880;52.342;9.662;2023-04-06T10:30:57;5.72;;;4.68;;
11646;SDS011;5880;52.342;9.662;2023-04-06T10:33:26;4.97;;;4.47;;
11646;SDS011;5880;52.342;9.662;2023-04-06T10:35:52;6.38;;;5.03;;
11646;SDS011;5880;52.342;9.662;2023-04-06T10:38:20;6.15;;;5.18;;
11646;SDS011;5880;52.342;9.662;2023-04-06T10:40:47;5.72;;;4.93;;
11646;SDS011;5880;52.342;9.662;2023-04-06T10:43:18;5.05;;;4.50;;
11646;SDS011;5880;52.342;9.662;2023-04-06T10:45:56;5.45;;;4.95;;
11646;SDS011;5880;52.342;9.662;2023-04-06T10:48:25;6.07;;;4.90;;
11646;SDS011;5880;52.342;9.662;2023-04-06T10:51:06;4.97;;;4.47;;
11646;SDS011;5880;52.342;9.662;2023-04-06T10:53:44;5.80;;;5.20;;
11646;SDS011;5880;52.342;9.662;2023-04-06T10:56:15;6.18;;;5.10;;
11646;SDS011;5880;52.342;9.662;2023-04-06T11:01:14;6.05;;;5.13;;
11646;SDS011;5880;52.342;9.662;2023-04-06T11:03:43;5.93;;;5.32;;
11646;SDS011;5880;52.342;9.662;2023-04-06T11:06:24;6.53;;;5.47;;
11646;SDS011;5880;52.342;9.662;2023-04-06T11:08:53;5.88;;;5.20;;
11646;SDS011;5880;52.342;9.662;2023-04-06T11:11:21;6.00;;;5.35;;
11646;SDS011;5880;52.342;9.662;2023-04-06T11:13:51;7.15;;;6.13;;
11646;SDS011;5880;52.342;9.662;2023-04-06T11:16:23;6.57;;;5.75;;
11646;SDS011;5880;52.342;9.662;2023-04-06T11:24:20;7.73;;;6.60;;
11646;SDS011;5880;52.342;9.662;2023-04-06T11:29:22;7.17;;;6.03;;
11646;SDS011;5880;52.342;9.662;2023-04-06T11:31:52;6.27;;;5.60;;
11646;SDS011;5880;52.342;9.662;2023-04-06T11:34:38;7.20;;;6.07;;
11646;SDS011;5880;52.342;9.662;2023-04-06T11:37:09;6.83;;;5.83;;
11646;SDS011;5880;52.342;9.662;2023-04-06T11:39:41;6.60;;;5.90;;
11646;SDS011;5880;52.342;9.662;2023-04-06T11:42:37;6.77;;;5.67;;
11646;SDS011;5880;52.342;9.662;2023-04-06T11:45:02;6.87;;;6.17;;
11646;SDS011;5880;52.342;9.662;2023-04-06T11:47:32;8.50;;;6.07;;
11646;SDS011;5880;52.342;9.662;2023-04-06T11:50:07;7.40;;;6.40;;
11646;SDS011;5880;52.342;9.662;2023-04-06T11:52:38;8.10;;;6.90;;
11646;SDS011;5880;52.342;9.662;2023-04-06T11:55:12;8.83;;;6.77;;
11646;SDS011;5880;52.342;9.662;2023-04-06T11:57:40;8.27;;;6.77;;
11646;SDS011;5880;52.342;9.662;2023-04-06T12:00:08;6.83;;;6.10;;
11646;SDS011;5880;52.342;9.662;2023-04-06T12:02:35;6.90;;;5.97;;
11646;SDS011;5880;52.342;9.662;2023-04-06T12:05:02;7.73;;;6.93;;
11646;SDS011;5880;52.342;9.662;2023-04-06T12:07:31;7.70;;;6.10;;
11646;SDS011;5880;52.342;9.662;2023-04-06T12:10:01;8.17;;;6.50;;
11646;SDS011;5880;52.342;9.662;2023-04-06T12:12:29;7.80;;;6.87;;
11646;SDS011;5880;52.342;9.662;2023-04-06T12:14:55;8.27;;;6.50;;
11646;SDS011;5880;52.342;9.662;2023-04-06T12:17:21;10.33;;;6.77;;
11646;SDS011;5880;52.342;9.662;2023-04-06T12:19:51;8.00;;;7.13;;
11646;SDS011;5880;52.342;9.662;2023-04-06T12:22:17;7.40;;;6.63;;
11646;SDS011;5880;52.342;9.662;2023-04-06T12:24:43;6.97;;;6.27;;
11646;SDS011;5880;52.342;9.662;2023-04-06T12:27:08;8.27;;;7.40;;
11646;SDS011;5880;52.342;9.662;2023-04-06T12:29:36;7.43;;;6.73;;
11646;SDS011;5880;52.342;9.662;2023-04-06T12:32:03;8.13;;;7.30;;
11646;SDS011;5880;52.342;9.662;2023-04-06T12:34:28;7.90;;;6.07;;
11646;SDS011;5880;52.342;9.662;2023-04-06T12:36:54;7.43;;;6.20;;
11646;SDS011;5880;52.342;9.662;2023-04-06T12:39:21;6.47;;;5.87;;
11646;SDS011;5880;52.342;9.662;2023-04-06T12:41:46;7.60;;;6.80;;
11646;SDS011;5880;52.342;9.662;2023-04-06T12:44:12;7.10;;;6.30;;
11646;SDS011;5880;52.342;9.662;2023-04-06T12:46:38;9.23;;;7.10;;
11646;SDS011;5880;52.342;9.662;2023-04-06T12:49:03;6.47;;;5.80;;
11646;SDS011;5880;52.342;9.662;2023-04-06T12:51:29;7.97;;;6.87;;
11646;SDS011;5880;52.342;9.662;2023-04-06T12:53:56;6.87;;;5.77;;
11646;SDS011;5880;52.342;9.662;2023-04-06T12:56:22;8.30;;;6.00;;
11646;SDS011;5880;52.342;9.662;2023-04-06T12:58:47;7.93;;;7.13;;
11646;SDS011;5880;52.342;9.662;2023-04-06T13:01:16;7.03;;;6.33;;
11646;SDS011;5880;52.342;9.662;2023-04-06T13:03:42;6.93;;;6.10;;
11646;SDS011;5880;52.342;9.662;2023-04-06T13:06:08;6.30;;;5.70;;
11646;SDS011;5880;52.342;9.662;2023-04-06T13:08:35;7.23;;;6.23;;
11646;SDS011;5880;52.342;9.662;2023-04-06T13:11:03;6.80;;;6.10;;
11646;SDS011;5880;52.342;9.662;2023-04-06T13:13:30;6.97;;;6.27;;
11646;SDS011;5880;52.342;9.662;2023-04-06T13:16:00;9.07;;;5.60;;
11646;SDS011;5880;52.342;9.662;2023-04-06T13:18:31;7.20;;;6.33;;
11646;SDS011;5880;52.342;9.662;2023-04-06T13:20:59;7.15;;;6.45;;
11646;SDS011;5880;52.342;9.662;2023-04-06T13:23:24;8.75;;;6.22;;
11646;SDS011;5880;52.342;9.662;2023-04-06T13:25:58;6.83;;;6.13;;
11646;SDS011;5880;52.342;9.662;2023-04-06T13:28:28;6.65;;;6.03;;
11646;SDS011;5880;52.342;9.662;2023-04-06T13:30:55;7.50;;;5.82;;
11646;SDS011;5880;52.342;9.662;2023-04-06T13:33:24;8.50;;;6.13;;
11646;SDS011;5880;52.342;9.662;2023-04-06T13:35:50;8.35;;;6.40;;
11646;SDS011;5880;52.342;9.662;2023-04-06T13:38:18;6.90;;;6.05;;
11646;SDS011;5880;52.342;9.662;2023-04-06T13:40:43;7.32;;;6.13;;
11646;SDS011;5880;52.342;9.662;2023-04-06T13:43:09;7.13;;;6.43;;
11646;SDS011;5880;52.342;9.662;2023-04-06T13:45:35;9.20;;;5.97;;
11646;SDS011;5880;52.342;9.662;2023-04-06T13:48:01;6.60;;;5.95;;
11646;SDS011;5880;52.342;9.662;2023-04-06T13:50:27;7.07;;;6.37;;
11646;SDS011;5880;52.342;9.662;2023-04-06T13:52:53;6.35;;;5.65;;
11646;SDS011;5880;52.342;9.662;2023-04-06T13:55:20;7.30;;;6.10;;
11646;SDS011;5880;52.342;9.662;2023-04-06T13:57:46;7.53;;;6.45;;
11646;SDS011;5880;52.342;9.662;2023-04-06T14:00:11;6.85;;;6.05;;
11646;SDS011;5880;52.342;9.662;2023-04-06T14:02:39;6.63;;;5.90;;
11646;SDS011;5880;52.342;9.662;2023-04-06T14:05:05;7.00;;;6.05;;
11646;SDS011;5880;52.342;9.662;2023-04-06T14:07:31;7.60;;;6.28;;
11646;SDS011;5880;52.342;9.662;2023-04-06T14:09:57;6.18;;;5.50;;
11646;SDS011;5880;52.342;9.662;2023-04-06T14:12:23;6.65;;;5.95;;
11646;SDS011;5880;52.342;9.662;2023-04-06T14:14:48;6.22;;;5.40;;
11646;SDS011;5880;52.342;9.662;2023-04-06T14:17:15;6.10;;;5.38;;
11646;SDS011;5880;52.342;9.662;2023-04-06T14:19:40;7.43;;;6.20;;
11646;SDS011;5880;52.342;9.662;2023-04-06T14:22:06;6.07;;;5.10;;
11646;SDS011;5880;52.342;9.662;2023-04-06T14:24:33;6.20;;;5.60;;
11646;SDS011;5880;52.342;9.662;2023-04-06T14:27:00;7.15;;;5.65;;
11646;SDS011;5880;52.342;9.662;2023-04-06T14:29:27;5.93;;;5.22;;
11646;SDS011;5880;52.342;9.662;2023-04-06T14:31:52;6.00;;;5.22;;
11646;SDS011;5880;52.342;9.662;2023-04-06T14:34:24;6.45;;;5.47;;
11646;SDS011;5880;52.342;9.662;2023-04-06T14:36:51;6.22;;;5.60;;
11646;SDS011;5880;52.342;9.662;2023-04-06T14:39:17;7.57;;;5.80;;
11646;SDS011;5880;52.342;9.662;2023-04-06T14:41:43;7.55;;;5.97;;
11646;SDS011;5880;52.342;9.662;2023-04-06T14:44:08;6.13;;;5.38;;
11646;SDS011;5880;52.342;9.662;2023-04-06T14:46:37;7.55;;;5.88;;
11646;SDS011;5880;52.342;9.662;2023-04-06T14:49:03;8.30;;;6.15;;
11646;SDS011;5880;52.342;9.662;2023-04-06T14:51:29;7.05;;;6.03;;
11646;SDS011;5880;52.342;9.662;2023-04-06T14:53:55;7.03;;;6.20;;
11646;SDS011;5880;52.342;9.662;2023-04-06T14:56:22;6.15;;;5.22;;
11646;SDS011;5880;52.342;9.662;2023-04-06T14:58:49;7.25;;;5.57;;
11646;SDS011;5880;52.342;9.662;2023-04-06T15:01:16;8.07;;;5.88;;
11646;SDS011;5880;52.342;9.662;2023-04-06T15:03:43;6.65;;;5.70;;
11646;SDS011;5880;52.342;9.662;2023-04-06T15:06:12;7.07;;;6.15;;
11646;SDS011;5880;52.342;9.662;2023-04-06T15:08:40;6.60;;;5.33;;
11646;SDS011;5880;52.342;9.662;2023-04-06T15:11:07;7.63;;;6.28;;
11646;SDS011;5880;52.342;9.662;2023-04-06T15:13:34;6.45;;;5.10;;